Time;durP1;ratioP1;P1;durP2;ratioP2;P2;SDS_P1;SDS_P2;PMS_P1;PMS_P2;Temp;Humidity;BMP_temperature;BMP_pressure;BME280_temperature;BME280_humidity;BME280_pressure;Samples;Min_cycle;Max_cycle;Signal;HPM_P1;HPM_P2
2023/08/30 00:01:34;;;;;;;0.30;0.30;;;24.10;61.80;;;24.34;46.85;94059.84;4993634;28;20205;-32
2023/08/30 00:04:01;;;;;;;0.38;0.38;;;24.10;61.80;;;24.33;47.06;94054.75;5008525;28;20199;-32
2023/08/30 00:06:28;;;;;;;0.30;0.30;;;24.10;61.70;;;24.32;46.90;94055.88;5077270;28;20243;-31
2023/08/30 00:08:57;;;;;;;0.30;0.30;;;24.10;61.80;;;24.32;46.93;94051.31;4993513;28;20249;-32
2023/08/30 00:11:24;;;;;;;0.40;0.40;;;24.10;61.80;;;24.30;47.00;94040.91;4993246;28;20638;-32
2023/08/30 00:13:51;;;;;;;0.47;0.47;;;24.10;61.80;;;24.32;46.95;94037.91;4993184;28;20198;-33
2023/08/30 00:16:18;;;;;;;0.40;0.40;;;24.10;61.80;;;24.34;47.15;94045.63;4993239;28;20231;-33
2023/08/30 00:18:46;;;;;;;0.40;0.40;;;24.10;62.00;;;24.33;47.26;94047.53;4993499;28;20194;-31
2023/08/30 00:21:13;;;;;;;0.40;0.40;;;24.10;61.90;;;24.33;47.05;94036.00;4993060;28;20207;-34
2023/08/30 00:23:40;;;;;;;0.50;0.50;;;24.10;61.90;;;24.33;47.18;94036.81;4992938;28;20281;-31
2023/08/30 00:26:07;;;;;;;0.40;0.40;;;24.10;61.90;;;24.33;47.09;94030.66;4992975;28;20247;-34
2023/08/30 00:28:35;;;;;;;0.30;0.30;;;24.10;61.90;;;24.33;46.87;94044.84;4992954;28;20218;-31
2023/08/30 00:31:02;;;;;;;0.30;0.30;;;24.10;61.80;;;24.32;47.16;94035.22;5008325;28;20215;-31
2023/08/30 00:33:29;;;;;;;0.40;0.40;;;24.10;61.90;;;24.32;47.06;94037.91;4993486;28;20277;-33
2023/08/30 00:35:58;;;;;;;0.30;0.30;;;24.10;61.80;;;24.30;47.36;94032.84;5008399;28;20594;-31
2023/08/30 00:38:27;;;;;;;0.35;0.35;;;24.10;61.80;;;24.32;47.09;94031.75;4992861;28;20214;-34
2023/08/30 00:40:55;;;;;;;0.30;0.30;;;24.10;61.90;;;24.32;47.12;94037.13;5008222;28;20220;-31
2023/08/30 00:43:22;;;;;;;0.30;0.30;;;24.10;61.90;;;24.30;47.25;94030.19;5008151;28;20222;-32
2023/08/30 00:45:50;;;;;;;0.30;0.30;;;24.10;61.90;;;24.33;47.06;94041.38;4992590;28;20705;-32
2023/08/30 00:48:21;;;;;;;0.40;0.40;;;24.10;62.00;;;24.32;47.25;94037.13;4992669;28;20214;-30
2023/08/30 00:50:49;;;;;;;0.40;0.40;;;24.10;61.90;;;24.30;46.92;94038.22;5058664;28;20649;-31
2023/08/30 00:53:17;;;;;;;0.38;0.38;;;24.10;62.00;;;24.32;46.92;94040.59;5008006;28;20639;-31
2023/08/30 00:55:44;;;;;;;0.40;0.40;;;24.10;62.00;;;24.31;47.14;94039.00;4992673;28;20195;-33
2023/08/30 00:58:12;;;;;;;0.60;0.60;;;24.00;61.90;;;24.33;47.43;94027.97;4996443;28;20207;-32
2023/08/30 01:00:40;;;;;;;0.40;0.40;;;24.10;62.00;;;24.32;47.21;94032.53;5011507;28;20216;-30
2023/08/30 01:03:09;;;;;;;0.40;0.40;;;24.00;61.90;;;24.32;47.10;94034.44;4996388;28;20230;-32
2023/08/30 01:05:37;;;;;;;0.60;0.60;;;24.10;61.90;;;24.29;47.09;94036.63;5011254;28;20217;-31
2023/08/30 01:08:04;;;;;;;0.30;0.30;;;24.10;62.00;;;24.29;47.23;94031.25;4995933;28;20216;-30
2023/08/30 01:11:11;;;;;;;0.40;0.40;;;24.10;62.00;;;24.27;47.22;94035.34;4995133;28;20203;-36
2023/08/30 01:13:51;;;;;;;0.50;0.50;;;24.10;61.90;;;24.26;47.23;94026.50;4997091;28;20187;-30
2023/08/30 01:16:23;;;;;;;0.40;0.40;;;24.10;62.00;;;24.27;47.14;94025.41;5060216;28;20237;-32
2023/08/30 01:18:56;;;;;;;0.30;0.30;;;24.10;62.00;;;24.27;47.21;94021.94;4994957;28;20199;-30
2023/08/30 01:22:00;;;;;;;0.40;0.40;;;24.00;61.90;;;24.25;47.07;94022.22;4996112;28;20182;-32
2023/08/30 01:24:41;;;;;;;0.30;0.30;;;24.00;61.90;;;24.24;47.07;94028.69;4995903;28;20203;-32
2023/08/30 01:27:12;;;;;;;0.30;0.30;;;24.00;61.90;;;24.25;47.15;94024.13;4995692;28;20622;-30
2023/08/30 01:29:45;;;;;;;0.30;0.30;;;24.00;62.00;;;24.24;47.17;94031.38;5079813;28;20730;-33
2023/08/30 01:32:13;;;;;;;0.43;0.43;;;24.00;62.00;;;24.24;47.39;94028.69;4994815;28;20610;-30
2023/08/30 01:34:43;;;;;;;0.30;0.30;;;24.00;62.00;;;24.25;47.08;94032.94;4995649;28;20206;-33
2023/08/30 01:37:10;;;;;;;0.32;0.32;;;24.00;62.00;;;24.24;47.17;94027.88;5062050;28;20255;-31
2023/08/30 01:39:38;;;;;;;0.40;0.40;;;24.00;61.90;;;24.25;47.05;94032.94;4994568;28;20675;-31
2023/08/30 01:42:08;;;;;;;0.40;0.40;;;24.00;62.30;;;24.25;47.34;94032.94;4994894;28;20213;-31
2023/08/30 01:44:38;;;;;;;0.30;0.30;;;24.00;62.00;;;24.23;47.19;94039.69;4995927;28;20206;-32
2023/08/30 01:47:06;;;;;;;0.30;0.30;;;24.00;62.00;;;24.24;47.08;94052.81;5079452;28;20196;-31
2023/08/30 01:49:34;;;;;;;0.40;0.40;;;24.00;61.90;;;24.23;46.99;94045.88;4994476;28;20298;-30
2023/08/30 01:52:02;;;;;;;0.40;0.40;;;24.00;61.90;;;24.23;47.11;94053.09;4995298;28;20206;-34
2023/08/30 01:54:31;;;;;;;0.40;0.40;;;24.00;62.00;;;24.24;46.94;94046.63;4978082;28;20226;-32
2023/08/30 01:56:58;;;;;;;0.40;0.40;;;24.00;62.00;;;24.24;47.22;94055.50;5061965;28;20282;-32
2023/08/30 01:59:25;;;;;;;0.40;0.40;;;24.00;62.10;;;24.24;47.17;94052.00;5062154;28;20301;-32
2023/08/30 02:01:52;;;;;;;0.30;0.30;;;24.00;62.00;;;24.23;47.17;94053.09;5010559;28;20260;-31
2023/08/30 02:04:21;;;;;;;0.40;0.40;;;24.00;62.00;;;24.22;47.38;94051.53;4995623;28;20223;-31
2023/08/30 02:07:04;;;;;;;0.43;0.43;;;23.90;62.00;;;24.20;47.25;94043.75;4994866;28;20670;-33
2023/08/30 02:09:50;;;;;;;0.50;0.50;;;24.00;62.10;;;24.20;47.07;94048.34;4978050;28;20223;-31
2023/08/30 02:12:19;;;;;;;0.40;0.40;;;23.90;61.90;;;24.20;47.19;94043.75;5078792;28;20252;-32
2023/08/30 02:14:49;;;;;;;0.40;0.40;;;23.90;61.90;;;24.19;46.71;94047.53;4994044;28;20278;-33
2023/08/30 02:17:18;;;;;;;0.40;0.40;;;23.90;61.80;;;24.20;47.18;94045.66;5079290;28;20260;-32
2023/08/30 02:19:46;;;;;;;0.35;0.35;;;23.90;61.90;;;24.18;47.15;94045.97;4994955;28;20210;-32
2023/08/30 02:22:17;;;;;;;0.40;0.40;;;23.90;62.00;;;24.20;47.29;94054.47;4995194;28;20203;-32
2023/08/30 02:24:44;;;;;;;0.40;0.40;;;23.90;62.00;;;24.20;47.37;94053.72;4994942;28;20208;-32
2023/08/30 02:27:12;;;;;;;0.30;0.30;;;23.90;62.00;;;24.20;47.19;94054.47;4993904;28;20198;-31
2023/08/30 02:29:40;;;;;;;0.30;0.30;;;23.90;61.90;;;24.21;47.09;94052.63;4995305;28;20215;-35
2023/08/30 02:32:07;;;;;;;0.40;0.40;;;23.90;62.00;;;24.20;47.19;94049.13;4994753;28;20566;-33
2023/08/30 02:34:35;;;;;;;0.40;0.40;;;23.90;62.80;;;24.21;47.38;94044.56;4994657;28;20199;-32
2023/08/30 02:37:02;;;;;;;0.40;0.40;;;23.90;62.00;;;24.20;47.20;94053.72;4994836;28;20191;-35
2023/08/30 02:39:30;;;;;;;0.40;0.40;;;24.00;62.10;;;24.20;47.23;94046.44;4994881;28;20208;-32
2023/08/30 02:41:57;;;;;;;0.40;0.40;;;23.90;62.00;;;24.20;47.32;94043.75;4995053;28;20252;-31
2023/08/30 02:44:24;;;;;;;0.40;0.40;;;23.90;62.00;;;24.19;47.22;94044.84;4994815;28;20214;-30
2023/08/30 02:46:51;;;;;;;0.60;0.60;;;23.90;61.90;;;24.18;47.28;94043.28;4994351;28;20251;-31
2023/08/30 02:49:18;;;;;;;0.32;0.32;;;23.90;61.90;;;24.16;47.09;94036.63;5078347;28;20211;-32
2023/08/30 02:51:45;;;;;;;0.40;0.40;;;23.90;61.90;;;24.17;47.20;94041.69;4994445;28;20543;-31
2023/08/30 02:54:13;;;;;;;0.30;0.30;;;23.90;61.90;;;24.17;47.23;94043.56;5078681;28;20192;-35
2023/08/30 02:56:43;;;;;;;0.30;0.30;;;23.90;61.90;;;24.17;47.17;94043.56;4977357;28;20272;-31
2023/08/30 02:59:11;;;;;;;0.30;0.30;;;23.90;61.90;;;24.14;47.23;94053.81;4993421;28;20203;-32
2023/08/30 03:01:39;;;;;;;0.50;0.50;;;23.90;62.00;;;24.13;47.55;94049.53;4993355;28;20293;-30
2023/08/30 03:04:08;;;;;;;0.45;0.45;;;23.90;61.90;;;24.14;47.07;94043.09;4994293;28;20203;-31
2023/08/30 03:06:35;;;;;;;0.40;0.40;;;23.90;62.00;;;24.16;47.24;94060.72;5009492;28;20290;-33
2023/08/30 03:09:05;;;;;;;0.35;0.35;;;23.90;62.00;;;24.15;47.18;94051.91;5009454;28;20253;-30
2023/08/30 03:11:36;;;;;;;0.38;0.38;;;23.90;61.90;;;24.14;47.01;94058.38;4993288;28;20706;-32
2023/08/30 03:14:03;;;;;;;0.40;0.40;;;23.90;61.90;;;24.13;47.18;94054.09;5009533;28;20198;-31
2023/08/30 03:16:31;;;;;;;0.40;0.40;;;23.90;61.90;;;24.12;47.20;94056.00;5009107;28;20237;-32
2023/08/30 03:18:58;;;;;;;0.40;0.40;;;23.80;61.80;;;24.12;47.21;94052.50;5008627;28;20210;-31
2023/08/30 03:21:25;;;;;;;0.60;0.60;;;23.80;61.80;;;24.11;47.31;94051.72;5009670;28;20206;-30
2023/08/30 03:23:53;;;;;;;0.30;0.30;;;23.90;61.90;;;24.09;47.00;94053.13;5077297;28;20265;-30
2023/08/30 03:26:20;;;;;;;0.40;0.40;;;23.80;62.70;;;24.07;46.95;94055.28;4992825;28;20218;-32
2023/08/30 03:28:47;;;;;;;0.30;0.30;;;23.80;61.80;;;24.07;47.25;94055.28;4992975;28;20612;-32
2023/08/30 03:31:19;;;;;;;0.40;0.40;;;23.80;61.80;;;24.05;46.82;94063.63;4992920;28;20291;-32
2023/08/30 03:33:48;;;;;;;0.30;0.30;;;23.80;61.80;;;24.04;46.95;94061.25;5077566;28;20252;-33
2023/08/30 03:36:17;;;;;;;0.40;0.40;;;23.80;61.80;;;24.03;46.94;94056.97;5009264;28;20199;-34
2023/08/30 03:38:45;;;;;;;0.32;0.32;;;23.80;61.90;;;24.01;46.78;94056.47;4994040;28;20209;-32
2023/08/30 03:41:12;;;;;;;0.47;0.47;;;23.80;61.80;;;24.00;46.77;94057.56;5009059;28;20270;-32
2023/08/30 03:43:42;;;;;;;0.35;0.35;;;23.70;61.80;;;23.98;46.91;94060.56;5008971;28;20218;-32
2023/08/30 03:46:11;;;;;;;0.40;0.40;;;23.80;61.90;;;23.96;46.97;94055.50;4992491;28;20209;-31
2023/08/30 03:48:39;;;;;;;0.30;0.30;;;23.80;62.00;;;23.94;47.20;94067.59;5008908;28;20233;-31
2023/08/30 03:51:06;;;;;;;0.40;0.40;;;23.80;61.90;;;23.94;47.16;94059.56;4993830;28;20187;-32
2023/08/30 03:53:33;;;;;;;0.40;0.40;;;23.70;61.80;;;23.95;47.05;94063.84;4994097;28;20610;-30
2023/08/30 03:56:00;;;;;;;0.40;0.40;;;23.70;61.80;;;23.94;47.15;94062.25;4992381;28;20199;-33
2023/08/30 03:58:28;;;;;;;0.40;0.40;;;23.70;61.80;;;23.92;46.89;94065.19;4993720;28;20197;-31
2023/08/30 04:00:56;;;;;;;0.40;0.40;;;23.70;61.80;;;23.91;47.09;94060.94;4993435;28;20312;-31
2023/08/30 04:03:24;;;;;;;0.40;0.40;;;23.70;61.90;;;23.92;47.09;94064.38;4976448;28;20210;-32
2023/08/30 04:05:59;;;;;;;0.30;0.30;;;23.70;62.00;;;23.92;47.10;94054.50;4993525;28;20215;-30
2023/08/30 04:08:26;;;;;;;0.38;0.38;;;23.70;61.90;;;23.91;47.39;94055.56;4993578;28;20233;-31
2023/08/30 04:10:53;;;;;;;0.30;0.30;;;23.60;61.90;;;23.92;47.14;94053.69;4993769;28;20186;-31
2023/08/30 04:13:21;;;;;;;0.40;0.40;;;23.70;61.90;;;23.92;47.18;94059.03;4993247;28;20248;-32
2023/08/30 04:15:49;;;;;;;0.50;0.50;;;23.60;61.90;;;23.90;46.96;94051.31;4992015;28;20239;-32
2023/08/30 04:18:16;;;;;;;0.40;0.40;;;23.60;61.90;;;23.89;47.02;94054.25;4993470;28;20201;-33
2023/08/30 04:20:45;;;;;;;0.40;0.40;;;23.60;61.90;;;23.86;47.08;94057.53;5008538;28;20211;-33
2023/08/30 04:23:13;;;;;;;0.40;0.40;;;23.60;61.70;;;23.86;47.08;94066.34;5008488;28;20562;-33
2023/08/30 04:25:40;;;;;;;0.40;0.40;;;23.60;61.80;;;23.82;46.92;94063.47;4992931;28;20278;-31
2023/08/30 04:28:08;;;;;;;0.40;0.40;;;23.60;61.80;;;23.83;47.07;94069.66;5008854;28;20535;-31
2023/08/30 04:30:37;;;;;;;0.40;0.40;;;23.60;61.80;;;23.82;47.04;94068.06;4993024;28;20202;-31
2023/08/30 04:33:05;;;;;;;0.40;0.40;;;23.60;61.90;;;23.82;47.03;94066.16;4992947;28;20199;-31
2023/08/30 04:35:33;;;;;;;0.45;0.45;;;23.60;61.90;;;23.84;47.07;94063.19;5008140;28;20216;-33
2023/08/30 04:38:02;;;;;;;0.40;0.40;;;23.50;61.90;;;23.83;47.22;94059.72;4992739;28;20299;-32
2023/08/30 04:40:30;;;;;;;0.40;0.40;;;23.50;62.20;;;23.85;47.00;94064.75;4992909;28;20195;-31
2023/08/30 04:42:58;;;;;;;0.45;0.45;;;23.60;62.00;;;23.83;47.17;94065.06;4993076;28;20199;-31
2023/08/30 04:45:26;;;;;;;0.40;0.40;;;23.60;61.90;;;23.85;47.15;94075.47;5076437;28;20255;-31
2023/08/30 04:47:53;;;;;;;0.40;0.40;;;23.50;61.90;;;23.84;47.29;94068.56;4992660;28;20199;-32
2023/08/30 04:50:20;;;;;;;0.40;0.40;;;23.50;61.90;;;23.84;47.38;94055.16;4992647;28;20665;-32
2023/08/30 04:52:48;;;;;;;0.40;0.40;;;23.50;61.90;;;23.85;47.25;94055.94;4991786;28;20209;-31
2023/08/30 04:55:17;;;;;;;0.30;0.30;;;23.60;62.00;;;23.84;47.53;94052.50;5008248;28;20206;-31
2023/08/30 04:57:44;;;;;;;0.40;0.40;;;23.60;62.00;;;23.85;47.32;94051.38;5008085;28;20208;-31
2023/08/30 05:00:15;;;;;;;0.38;0.38;;;23.60;62.00;;;23.86;47.30;94049.50;4991698;28;20212;-36
2023/08/30 05:02:43;;;;;;;0.40;0.40;;;23.60;62.00;;;23.86;47.31;94047.63;4992767;28;20650;-32
2023/08/30 05:05:11;;;;;;;0.32;0.32;;;23.60;62.00;;;23.86;47.15;94041.47;5008446;28;20214;-32
2023/08/30 05:07:39;;;;;;;0.30;0.30;;;23.60;61.90;;;23.86;47.31;94044.16;4975423;28;20709;-33
2023/08/30 05:10:07;;;;;;;0.40;0.40;;;23.60;62.00;;;23.86;47.39;94058.31;5008556;28;20244;-32
2023/08/30 05:12:35;;;;;;;0.40;0.40;;;23.60;62.00;;;23.86;47.20;94055.66;4991531;28;20294;-31
2023/08/30 05:15:03;;;;;;;0.30;0.30;;;23.60;62.00;;;23.85;47.35;94055.94;4991515;28;20638;-32
2023/08/30 05:17:31;;;;;;;0.40;0.40;;;23.60;62.00;;;23.86;47.31;94060.22;5007394;28;20724;-31
2023/08/30 05:19:58;;;;;;;0.30;0.30;;;23.60;62.00;;;23.86;47.19;94057.53;5007700;28;20544;-32
2023/08/30 05:22:26;;;;;;;0.35;0.35;;;23.60;62.00;;;23.85;47.12;94056.72;4991438;28;20211;-30
2023/08/30 05:24:53;;;;;;;0.30;0.30;;;23.60;62.10;;;23.87;47.23;94051.09;5076172;28;20306;-30
2023/08/30 05:27:21;;;;;;;0.40;0.40;;;23.60;62.10;;;23.86;47.37;94049.50;4992131;28;20665;-32
2023/08/30 05:29:48;;;;;;;0.40;0.40;;;23.60;62.00;;;23.86;47.10;94057.53;4991278;28;20220;-32
2023/08/30 05:32:15;;;;;;;0.40;0.40;;;23.60;62.00;;;23.86;47.26;94054.88;4991324;28;20212;-30
2023/08/30 05:35:01;;;;;;;0.32;0.32;;;23.60;62.00;;;23.84;47.33;94052.50;4992264;28;20329;-33
2023/08/30 05:37:41;;;;;;;0.30;0.30;;;23.60;62.20;;;23.83;47.40;94056.25;4991118;28;20663;-31
2023/08/30 05:40:20;;;;;;;0.40;0.40;;;23.60;62.00;;;23.82;47.34;94046.63;5007519;28;20559;-32
2023/08/30 05:42:48;;;;;;;0.35;0.35;;;23.60;62.00;;;23.82;47.25;94057.34;4993639;28;20233;-33
2023/08/30 05:45:15;;;;;;;0.30;0.30;;;23.60;62.00;;;23.83;47.34;94061.63;4995526;28;20206;-30
2023/08/30 05:47:42;;;;;;;0.30;0.30;;;23.60;62.10;;;23.82;47.47;94058.13;5010690;28;20202;-31
2023/08/30 05:50:09;;;;;;;0.30;0.30;;;23.60;62.10;;;23.84;47.30;94057.84;4995329;28;20233;-32
2023/08/30 05:52:41;;;;;;;0.30;0.30;;;23.60;62.10;;;23.85;47.45;94066.66;4995386;28;20586;-33
2023/08/30 05:55:09;;;;;;;0.40;0.40;;;23.60;62.10;;;23.83;47.38;94065.06;4995630;28;20207;-32
2023/08/30 05:57:37;;;;;;;0.40;0.40;;;23.60;62.00;;;23.83;47.38;94067.75;5010516;28;20209;-33
2023/08/30 06:00:05;;;;;;;0.38;0.38;;;23.60;62.10;;;23.85;47.39;94069.34;4995509;28;20194;-32
2023/08/30 06:02:40;;;;;;;0.50;0.50;;;23.60;62.00;;;23.82;47.14;94068.84;4995255;28;20185;-31
2023/08/30 06:05:08;;;;;;;0.30;0.30;;;23.60;62.00;;;23.83;47.24;94078.47;4995170;28;20206;-30
2023/08/30 06:07:35;;;;;;;0.40;0.40;;;23.60;62.00;;;23.83;47.25;94075.78;4995031;28;20199;-30
2023/08/30 06:10:04;;;;;;;0.40;0.40;;;23.60;61.90;;;23.82;47.28;94084.91;4995579;28;20250;-32
2023/08/30 06:12:31;;;;;;;0.30;0.30;;;23.60;61.90;;;23.81;47.37;94083.34;4995109;28;20198;-30
2023/08/30 06:14:58;;;;;;;0.30;0.30;;;23.60;62.00;;;23.83;47.24;94089.16;4995290;28;20255;-31
2023/08/30 06:17:25;;;;;;;0.40;0.40;;;23.60;61.90;;;23.82;47.46;94092.16;4994720;28;20322;-32
2023/08/30 06:19:53;;;;;;;0.35;0.35;;;23.60;62.10;;;23.83;47.36;94091.06;4994975;28;20231;-31
2023/08/30 06:22:21;;;;;;;0.32;0.32;;;23.60;62.10;;;23.85;47.20;94093.44;4994923;28;20297;-32
2023/08/30 06:24:48;;;;;;;0.30;0.30;;;23.60;62.10;;;23.84;47.44;94087.31;5010389;28;20210;-35
2023/08/30 06:27:16;;;;;;;0.40;0.40;;;23.60;62.20;;;23.85;47.60;94093.44;5078912;28;20198;-32
2023/08/30 06:29:43;;;;;;;0.30;0.30;;;23.60;62.10;;;23.83;47.39;94083.81;4994717;28;20630;-30
2023/08/30 06:32:10;;;;;;;0.40;0.40;;;23.60;62.10;;;23.85;47.51;94096.13;4995172;28;20218;-31
2023/08/30 06:34:38;;;;;;;0.30;0.30;;;23.60;62.10;;;23.85;47.20;94098.78;5010392;28;20524;-33
2023/08/30 06:37:04;;;;;;;0.30;0.30;;;23.60;62.00;;;23.83;47.18;94101.78;5078435;28;20198;-31
2023/08/30 06:39:36;;;;;;;0.30;0.30;;;23.60;62.00;;;23.83;47.35;94107.13;4995452;28;20562;-31
2023/08/30 06:42:04;;;;;;;0.32;0.32;;;23.60;62.10;;;23.83;47.42;94107.13;4994836;28;20210;-31
2023/08/30 06:44:31;;;;;;;0.40;0.40;;;23.60;62.10;;;23.83;47.31;94107.91;4994865;28;20199;-30
2023/08/30 06:46:58;;;;;;;0.30;0.30;;;23.60;62.00;;;23.84;47.03;94108.72;4994617;28;20710;-31
2023/08/30 06:49:31;;;;;;;0.30;0.30;;;23.60;62.00;;;23.85;47.51;94118.31;4995097;28;20356;-32
2023/08/30 06:52:01;;;;;;;0.60;0.60;;;23.60;62.10;;;23.85;47.42;94114.88;5010122;28;20512;-31
2023/08/30 06:54:30;;;;;;;0.52;0.52;;;23.60;62.10;;;23.86;47.42;94119.13;4993834;28;20516;-34
2023/08/30 06:56:59;;;;;;;0.35;0.35;;;23.60;62.00;;;23.84;47.42;94116.75;4993551;28;20202;-31
2023/08/30 06:59:27;;;;;;;0.30;0.30;;;23.60;62.10;;;23.85;47.49;94123.69;4994303;28;20285;-32
2023/08/30 07:01:54;;;;;;;0.30;0.30;;;23.60;62.00;;;23.85;47.29;94122.91;5009713;28;20245;-30
2023/08/30 07:04:21;;;;;;;0.38;0.38;;;23.60;62.10;;;23.86;47.43;94119.13;5079211;28;20499;-30
2023/08/30 07:06:49;;;;;;;0.40;0.40;;;23.60;62.10;;;23.85;47.46;94114.88;5077748;28;20229;-29
2023/08/30 07:09:16;;;;;;;0.40;0.40;;;23.60;62.00;;;23.86;47.21;94119.13;5078025;28;20227;-31
2023/08/30 07:11:44;;;;;;;0.30;0.30;;;23.60;62.00;;;23.86;47.40;94119.13;4994191;28;20199;-30
2023/08/30 07:14:15;;;;;;;0.30;0.30;;;23.60;63.00;;;23.85;47.31;94121.00;4994113;28;20218;-30
2023/08/30 07:16:42;;;;;;;0.40;0.40;;;23.60;62.10;;;23.85;47.34;94121.00;4993931;28;20230;-31
2023/08/30 07:19:09;;;;;;;0.40;0.40;;;23.60;62.10;;;23.86;47.34;94122.59;4993280;28;20656;-30
2023/08/30 07:21:38;;;;;;;0.40;0.40;;;23.60;62.00;;;23.86;47.21;94124.50;4994348;28;20191;-32
2023/08/30 07:24:09;;;;;;;0.40;0.40;;;23.60;62.00;;;23.85;47.14;94123.69;4994279;28;20202;-29
2023/08/30 07:26:37;;;;;;;0.40;0.40;;;23.60;62.10;;;23.85;47.24;94128.25;4993727;28;20218;-31
2023/08/30 07:29:07;;;;;;;0.32;0.32;;;23.60;62.10;;;23.85;47.44;94129.03;4994044;28;20191;-30
2023/08/30 07:31:34;;;;;;;0.43;0.43;;;23.60;62.00;;;23.85;47.19;94130.94;4994419;28;20194;-30
2023/08/30 07:34:02;;;;;;;0.30;0.30;;;23.60;62.00;;;23.83;47.22;94139.28;5009488;28;20187;-33
2023/08/30 07:36:32;;;;;;;0.40;0.40;;;23.60;62.00;;;23.84;47.30;94140.88;5077688;28;20195;-30
2023/08/30 07:39:14;;;;;;;0.30;0.30;;;23.60;61.90;;;23.83;47.23;94141.94;5066934;28;20183;-32
2023/08/30 07:41:41;;;;;;;0.50;0.50;;;23.60;61.90;;;23.81;47.14;94139.56;4993679;28;20196;-30
2023/08/30 07:44:09;;;;;;;0.40;0.40;;;23.60;61.90;;;23.82;47.07;94135.00;5009657;28;20203;-31
2023/08/30 07:46:36;;;;;;;0.40;0.40;;;23.60;62.00;;;23.81;47.28;94142.25;4993668;28;20638;-30
2023/08/30 07:49:03;;;;;;;0.40;0.40;;;23.60;62.00;;;23.80;46.92;94143.34;4993562;28;20561;-32
2023/08/30 07:51:30;;;;;;;0.40;0.40;;;23.60;62.00;;;23.80;47.24;94143.34;4994223;28;20258;-32
2023/08/30 07:53:58;;;;;;;0.52;0.52;;;23.50;61.90;;;23.79;47.11;94146.28;4993881;28;20257;-34
2023/08/30 07:56:25;;;;;;;0.40;0.40;;;23.60;61.90;;;23.77;47.23;94146.59;4993584;28;20196;-30
2023/08/30 07:58:54;;;;;;;0.40;0.40;;;23.60;62.00;;;23.78;47.23;94150.06;5076913;28;20206;-31
2023/08/30 08:01:21;;;;;;;0.35;0.35;;;23.50;61.90;;;23.77;47.29;94149.25;5060352;28;20209;-31
2023/08/30 08:03:48;;;;;;;0.40;0.40;;;23.50;61.90;;;23.78;47.36;94153.53;4993506;28;20629;-33
2023/08/30 08:06:33;;;;;;;0.40;0.40;;;23.50;61.90;;;23.77;47.41;94153.84;4993651;28;20258;-35
2023/08/30 08:09:04;;;;;;;0.30;0.30;;;23.50;61.90;;;23.77;47.22;94154.63;4993715;28;20549;-32
2023/08/30 08:11:32;;;;;;;0.50;0.50;;;23.50;62.00;;;23.77;47.40;94156.50;4993539;28;20531;-30
2023/08/30 08:13:59;;;;;;;0.40;0.40;;;23.50;62.00;;;23.76;47.12;94152.25;4992495;28;20206;-31
2023/08/30 08:16:27;;;;;;;0.60;0.60;;;23.50;61.90;;;23.76;47.14;94161.06;4992172;28;20231;-31
2023/08/30 08:18:55;;;;;;;0.40;0.40;;;23.50;61.90;;;23.77;47.18;94168.00;5076902;28;20288;-30
2023/08/30 08:21:25;;;;;;;0.32;0.32;;;23.50;62.00;;;23.76;47.32;94163.72;5008426;28;20611;-31
2023/08/30 08:23:52;;;;;;;0.40;0.40;;;23.50;62.00;;;23.77;47.30;94162.66;4992980;28;20297;-32
2023/08/30 08:26:19;;;;;;;0.40;0.40;;;23.50;62.00;;;23.77;47.18;94161.88;5076781;28;20199;-30
2023/08/30 08:28:47;;;;;;;0.40;0.40;;;23.50;61.90;;;23.76;47.34;94166.41;4992965;28;20746;-31
2023/08/30 08:31:17;;;;;;;0.40;0.40;;;23.50;61.90;;;23.77;47.07;94169.91;4993004;28;20218;-31
2023/08/30 08:33:45;;;;;;;0.40;0.40;;;23.50;61.90;;;23.77;47.35;94159.19;4992418;28;20195;-29
2023/08/30 08:36:12;;;;;;;0.40;0.40;;;23.50;62.10;;;23.77;47.12;94164.53;4993231;28;20570;-29
2023/08/30 08:38:39;;;;;;;0.40;0.40;;;23.50;62.00;;;23.79;47.30;94163.16;4992907;28;20199;-29
2023/08/30 08:41:11;;;;;;;0.32;0.32;;;23.50;62.10;;;23.79;47.19;94163.16;4992675;28;20595;-29
2023/08/30 08:43:40;;;;;;;0.47;0.47;;;23.50;62.10;;;23.79;47.56;94168.53;4993152;28;20198;-29
2023/08/30 08:46:09;;;;;;;0.30;0.30;;;23.50;62.00;;;23.80;47.33;94169.31;4975840;28;20220;-30
2023/08/30 08:48:43;;;;;;;0.38;0.38;;;23.50;63.00;;;23.81;47.38;94166.34;5076494;28;20291;-29
2023/08/30 08:51:11;;;;;;;0.32;0.32;;;23.50;62.10;;;23.81;47.26;94166.34;4975764;28;20247;-30
2023/08/30 08:53:39;;;;;;;0.40;0.40;;;23.60;62.20;;;23.83;47.34;94171.41;4993267;28;20206;-31
2023/08/30 08:56:08;;;;;;;0.30;0.30;;;23.60;62.20;;;23.84;47.32;94175.69;5076445;28;20264;-30
2023/08/30 08:58:38;;;;;;;0.30;0.30;;;23.60;62.40;;;23.86;47.53;94178.06;5075889;28;20200;-29
2023/08/30 09:01:06;;;;;;;0.30;0.30;;;23.60;62.20;;;23.85;47.84;94173.78;4992505;28;20185;-31
2023/08/30 09:03:42;;;;;;;0.40;0.40;;;23.60;62.10;;;23.87;47.48;94176.97;5070473;28;20188;-31
2023/08/30 09:06:09;;;;;;;0.40;0.40;;;23.60;62.10;;;23.87;47.31;94174.28;4992554;28;20228;-30
2023/08/30 09:08:36;;;;;;;0.32;0.32;;;23.60;63.00;;;23.88;47.48;94181.25;4992526;28;20202;-30
2023/08/30 09:11:03;;;;;;;0.45;0.45;;;23.60;62.10;;;23.89;47.40;94182.81;4992365;28;20643;-35
2023/08/30 09:13:30;;;;;;;0.30;0.30;;;23.60;62.00;;;23.89;47.42;94183.63;4992549;28;20240;-29
2023/08/30 09:15:58;;;;;;;0.32;0.32;;;23.70;62.10;;;23.90;47.42;94182.53;4992270;28;20270;-30
2023/08/30 09:18:28;;;;;;;0.38;0.38;;;23.70;62.10;;;23.91;47.38;94192.16;5079030;28;20215;-31
2023/08/30 09:21:10;;;;;;;0.50;0.50;;;23.70;62.10;;;23.90;47.42;94187.06;5011161;28;20182;-30
2023/08/30 09:23:38;;;;;;;0.40;0.40;;;23.70;62.10;;;23.90;47.30;94185.22;4995756;28;20192;-30
2023/08/30 09:26:05;;;;;;;0.30;0.30;;;23.70;62.10;;;23.91;47.13;94192.16;4996074;28;20240;-31
2023/08/30 09:28:43;;;;;;;0.30;0.30;;;23.70;62.10;;;23.91;47.25;94194.84;4995762;28;20201;-30
2023/08/30 09:31:21;;;;;;;0.40;0.40;;;23.70;62.10;;;23.92;47.27;94191.06;4994942;28;20238;-31
2023/08/30 09:33:49;;;;;;;0.40;0.40;;;23.70;62.00;;;23.90;47.25;94195.94;4996238;28;20188;-30
2023/08/30 09:36:16;;;;;;;0.40;0.40;;;23.70;62.00;;;23.91;47.30;94191.34;4995729;28;20249;-31
2023/08/30 09:38:49;;;;;;;0.30;0.30;;;23.70;62.00;;;23.90;47.02;94187.06;4995872;28;20621;-30
2023/08/30 09:41:17;;;;;;;0.45;0.45;;;23.70;62.00;;;23.89;47.30;94188.97;4995947;28;20191;-31
2023/08/30 09:43:45;;;;;;;0.30;0.30;;;23.70;62.10;;;23.89;47.22;94188.16;4995527;28;20244;-31
2023/08/30 09:46:17;;;;;;;0.40;0.40;;;23.60;62.90;;;23.89;47.40;94190.84;4995805;28;20183;-32
2023/08/30 09:48:44;;;;;;;0.35;0.35;;;23.70;62.10;;;23.90;47.36;94197.78;4995712;28;20225;-31
2023/08/30 09:51:12;;;;;;;0.30;0.30;;;23.60;62.00;;;23.90;47.22;94189.75;5079378;28;20310;-31
2023/08/30 09:53:45;;;;;;;0.47;0.47;;;23.60;62.10;;;23.91;47.14;94194.03;5079622;28;20200;-32
2023/08/30 09:56:35;;;;;;;0.30;0.30;;;23.70;62.20;;;23.91;47.23;94194.84;5066588;28;20204;-31
2023/08/30 09:59:05;;;;;;;0.45;0.45;;;23.60;62.10;;;23.91;47.29;94189.47;4994363;28;20671;-33
2023/08/30 10:01:32;;;;;;;0.30;0.30;;;23.60;62.10;;;23.92;47.26;94196.44;4995090;28;20205;-30
2023/08/30 10:04:02;;;;;;;0.40;0.40;;;23.70;62.10;;;23.93;47.26;94186.53;4995218;28;20195;-32
2023/08/30 10:06:30;;;;;;;0.40;0.40;;;23.70;62.10;;;23.93;47.24;94192.66;4994649;28;20203;-30
2023/08/30 10:08:59;;;;;;;0.30;0.30;;;23.70;62.20;;;23.92;47.28;94185.72;4995124;28;20213;-32
2023/08/30 10:11:29;;;;;;;0.40;0.40;;;23.70;62.20;;;23.94;47.41;94188.13;5078708;28;20272;-32
2023/08/30 10:13:56;;;;;;;0.40;0.40;;;23.70;62.20;;;23.95;47.32;94187.81;4995295;28;20632;-30
2023/08/30 10:16:27;;;;;;;0.30;0.30;;;23.70;62.20;;;23.95;47.30;94190.50;5079506;28;20285;-33
2023/08/30 10:19:08;;;;;;;0.52;0.52;;;23.70;62.20;;;23.96;47.33;94193.97;4995332;28;20266;-32
2023/08/30 10:21:37;;;;;;;0.40;0.40;;;23.70;62.10;;;23.95;47.31;94187.81;5079318;28;20203;-30
2023/08/30 10:24:09;;;;;;;0.50;0.50;;;23.70;62.10;;;23.95;47.39;94185.16;4994878;28;20546;-32
2023/08/30 10:26:57;;;;;;;0.40;0.40;;;23.70;62.10;;;23.96;47.19;94192.09;5065023;28;20202;-31
2023/08/30 10:29:26;;;;;;;0.30;0.30;;;23.70;62.10;;;23.96;47.11;94188.59;4993844;28;20207;-36